首页
METAR-TAF:

METAR-TAF

机场 :

Havre City-County Airport

哈佛, 蒙大拿州, 美国

纬度: 48-32-34N, 经度: 109-45-48W, 海拔: 789米

当前天气观测

该预报发布于1小时和5分钟前的23:53 UTC
风速5节,风向西
温度 12°C
湿度 54%
气压 1013 hPa
能見度: 16.1公里
少量云层高于10000英尺

METAR: KHVR 202353Z AUTO 27005KT 10SM FEW100 12/03 A2992 RMK AO2 RAE01 SLP144 P0000 60004 T01220033 10139 20083 56013

时间: 18:58 (00:58 UTC)

预报

该预报发布于1小时和18分钟前的23:40 UTC
预报有效从21日的 00点(UTC)到 21日的 24点(UTC)
风速9节,风向西转西北
能見度: 10公里
散云层高于3500英尺
多云层高于5000英尺
附近有阵雨
短暂存在
从 21日的 00点(UTC)到 21日的 04点(UTC)
能見度: 6.4公里
散云层高于1500英尺
多云层高于2500英尺
阵雨, 轻雾
从 21日的 0600点(UTC)
风速6节,风向多变
能見度: 10公里
散云层高于2500英尺
多云层高于5000英尺
附近有雾
从 21日的 1600点(UTC)
风速9节,风向西
能見度: 10公里
散云层高于5000英尺
多云层高于9000英尺
附近有阵雨,

TAF: KHVR 202340Z 2100/2124 30009KT P6SM VCSH SCT035 BKN050 TEMPO 2100/2104 4SM SHRA BR SCT015 BKN025 FM210600 VRB06KT P6SM VCFG SCT025 BKN050 FM211600 28009KT P6SM VCSH SCT050 BKN090

超过4000个机场的气象观测和天气预报(METAR&TAF报告)。

可查询的气象台以黄色和红色小点在地图上表示。

将鼠标移到小点上方,可查看气象台名称。

然后点击查看天气观测和预报。

如需切换地图:点击带黑十字的绿色按钮放大地图;点击带横线的绿色按钮缩小地图;或者点击绿色箭头查看邻近地区的地图。


METAR-TAF: